Sign in

Goboko App

Advertising

Info

Aviation weather - KDAB

METAR KDAB 271153Z 00000KT 7SM CLR 15/15 A3011 RMK AO2 SLP197 T01500150 10189 20144 53013

TAF KDAB 271134Z 2712/2812 VRB02KT P6SM SKC FM271600 08008KT P6SM SCT040 SCT250 FM280000 VRB02KT P6SM FEW250

Aviation weather from ADDS. Re-check weather before flight.

-